sensor_id;sensor_type;location;lat;lon;timestamp;P1;durP1;ratioP1;P2;durP2;ratioP2
54555;SDS011;57291;37.520;15.106;2023-03-01T00:01:17;57.15;;;7.47;;
54555;SDS011;57291;37.520;15.106;2023-03-01T00:03:46;45.43;;;7.17;;
54555;SDS011;57291;37.520;15.106;2023-03-01T00:06:14;43.33;;;5.85;;
54555;SDS011;57291;37.520;15.106;2023-03-01T00:08:41;44.17;;;6.45;;
54555;SDS011;57291;37.520;15.106;2023-03-01T00:11:20;48.55;;;7.00;;
54555;SDS011;57291;37.520;15.106;2023-03-01T00:13:52;38.30;;;5.97;;
54555;SDS011;57291;37.520;15.106;2023-03-01T00:16:25;59.83;;;8.27;;
54555;SDS011;57291;37.520;15.106;2023-03-01T00:18:57;47.58;;;6.68;;
54555;SDS011;57291;37.520;15.106;2023-03-01T00:21:25;44.95;;;5.82;;
54555;SDS011;57291;37.520;15.106;2023-03-01T00:23:53;39.42;;;6.65;;
54555;SDS011;57291;37.520;15.106;2023-03-01T00:26:22;37.05;;;6.35;;
54555;SDS011;57291;37.520;15.106;2023-03-01T00:28:50;44.45;;;6.35;;
54555;SDS011;57291;37.520;15.106;2023-03-01T00:31:19;51.10;;;6.72;;
54555;SDS011;57291;37.520;15.106;2023-03-01T00:33:51;37.90;;;6.00;;
54555;SDS011;57291;37.520;15.106;2023-03-01T00:36:25;50.05;;;8.07;;
54555;SDS011;57291;37.520;15.106;2023-03-01T00:38:55;45.63;;;6.63;;
54555;SDS011;57291;37.520;15.106;2023-03-01T00:41:23;50.97;;;7.07;;
54555;SDS011;57291;37.520;15.106;2023-03-01T00:43:53;39.85;;;5.60;;
54555;SDS011;57291;37.520;15.106;2023-03-01T00:46:22;37.15;;;6.22;;
54555;SDS011;57291;37.520;15.106;2023-03-01T00:48:51;54.17;;;8.75;;
54555;SDS011;57291;37.520;15.106;2023-03-01T00:51:19;57.33;;;7.22;;
54555;SDS011;57291;37.520;15.106;2023-03-01T00:53:53;53.03;;;7.10;;
54555;SDS011;57291;37.520;15.106;2023-03-01T00:56:24;38.58;;;6.82;;
54555;SDS011;57291;37.520;15.106;2023-03-01T00:58:51;46.58;;;6.40;;
54555;SDS011;57291;37.520;15.106;2023-03-01T01:01:20;42.17;;;6.22;;
54555;SDS011;57291;37.520;15.106;2023-03-01T01:06:17;49.92;;;6.50;;
54555;SDS011;57291;37.520;15.106;2023-03-01T01:08:46;37.58;;;6.15;;
54555;SDS011;57291;37.520;15.106;2023-03-01T01:11:14;37.47;;;5.82;;
54555;SDS011;57291;37.520;15.106;2023-03-01T01:13:43;43.65;;;6.22;;
54555;SDS011;57291;37.520;15.106;2023-03-01T01:16:12;31.25;;;5.30;;
54555;SDS011;57291;37.520;15.106;2023-03-01T01:18:40;34.05;;;4.97;;
54555;SDS011;57291;37.520;15.106;2023-03-01T01:21:09;36.53;;;5.63;;
54555;SDS011;57291;37.520;15.106;2023-03-01T01:23:38;42.85;;;5.30;;
54555;SDS011;57291;37.520;15.106;2023-03-01T01:26:07;43.17;;;5.50;;
54555;SDS011;57291;37.520;15.106;2023-03-01T01:28:36;46.00;;;7.43;;
54555;SDS011;57291;37.520;15.106;2023-03-01T01:31:04;45.78;;;7.20;;
54555;SDS011;57291;37.520;15.106;2023-03-01T01:33:31;32.30;;;6.55;;
54555;SDS011;57291;37.520;15.106;2023-03-01T01:35:59;35.75;;;5.78;;
54555;SDS011;57291;37.520;15.106;2023-03-01T01:38:26;36.05;;;6.10;;
54555;SDS011;57291;37.520;15.106;2023-03-01T01:40:54;28.45;;;5.43;;
54555;SDS011;57291;37.520;15.106;2023-03-01T01:45:50;36.05;;;4.82;;
54555;SDS011;57291;37.520;15.106;2023-03-01T01:48:22;39.10;;;5.47;;
54555;SDS011;57291;37.520;15.106;2023-03-01T01:51:08;24.77;;;4.65;;
54555;SDS011;57291;37.520;15.106;2023-03-01T01:53:39;26.88;;;4.82;;
54555;SDS011;57291;37.520;15.106;2023-03-01T01:56:10;27.90;;;5.60;;
54555;SDS011;57291;37.520;15.106;2023-03-01T01:58:40;36.97;;;4.75;;
54555;SDS011;57291;37.520;15.106;2023-03-01T02:01:10;28.83;;;4.20;;
54555;SDS011;57291;37.520;15.106;2023-03-01T02:03:38;27.83;;;4.50;;
54555;SDS011;57291;37.520;15.106;2023-03-01T02:06:12;21.38;;;3.33;;
54555;SDS011;57291;37.520;15.106;2023-03-01T02:08:40;22.25;;;4.05;;
54555;SDS011;57291;37.520;15.106;2023-03-01T02:11:09;20.77;;;2.78;;
54555;SDS011;57291;37.520;15.106;2023-03-01T02:13:41;16.70;;;3.42;;
54555;SDS011;57291;37.520;15.106;2023-03-01T02:16:10;15.50;;;2.67;;
54555;SDS011;57291;37.520;15.106;2023-03-01T02:18:40;9.85;;;2.67;;
54555;SDS011;57291;37.520;15.106;2023-03-01T02:23:48;13.55;;;2.20;;
54555;SDS011;57291;37.520;15.106;2023-03-01T02:29:01;13.10;;;2.25;;
54555;SDS011;57291;37.520;15.106;2023-03-01T02:31:29;16.38;;;3.72;;
54555;SDS011;57291;37.520;15.106;2023-03-01T02:34:14;11.52;;;2.33;;
54555;SDS011;57291;37.520;15.106;2023-03-01T02:36:45;15.60;;;2.50;;
54555;SDS011;57291;37.520;15.106;2023-03-01T02:39:18;13.02;;;2.50;;
54555;SDS011;57291;37.520;15.106;2023-03-01T02:41:51;11.33;;;2.20;;
54555;SDS011;57291;37.520;15.106;2023-03-01T02:44:20;13.77;;;1.98;;
54555;SDS011;57291;37.520;15.106;2023-03-01T02:46:53;10.32;;;2.10;;
54555;SDS011;57291;37.520;15.106;2023-03-01T02:49:27;15.13;;;1.67;;
54555;SDS011;57291;37.520;15.106;2023-03-01T02:54:43;10.95;;;2.35;;
54555;SDS011;57291;37.520;15.106;2023-03-01T02:57:14;12.88;;;2.58;;
54555;SDS011;57291;37.520;15.106;2023-03-01T02:59:42;16.45;;;2.35;;
54555;SDS011;57291;37.520;15.106;2023-03-01T03:05:20;15.52;;;2.20;;
54555;SDS011;57291;37.520;15.106;2023-03-01T03:10:24;12.07;;;2.13;;
54555;SDS011;57291;37.520;15.106;2023-03-01T03:12:58;10.07;;;2.03;;
54555;SDS011;57291;37.520;15.106;2023-03-01T03:15:27;13.05;;;2.78;;
54555;SDS011;57291;37.520;15.106;2023-03-01T03:17:56;9.02;;;1.73;;
54555;SDS011;57291;37.520;15.106;2023-03-01T03:20:26;11.55;;;2.20;;
54555;SDS011;57291;37.520;15.106;2023-03-01T03:22:56;15.32;;;2.22;;
54555;SDS011;57291;37.520;15.106;2023-03-01T03:25:25;14.45;;;2.10;;
54555;SDS011;57291;37.520;15.106;2023-03-01T03:27:54;10.43;;;2.10;;
54555;SDS011;57291;37.520;15.106;2023-03-01T03:30:26;8.88;;;2.13;;
54555;SDS011;57291;37.520;15.106;2023-03-01T03:32:57;13.68;;;2.30;;
54555;SDS011;57291;37.520;15.106;2023-03-01T03:35:26;9.45;;;1.90;;
54555;SDS011;57291;37.520;15.106;2023-03-01T03:37:57;14.23;;;2.55;;
54555;SDS011;57291;37.520;15.106;2023-03-01T03:40:31;7.43;;;1.95;;
54555;SDS011;57291;37.520;15.106;2023-03-01T03:43:10;13.05;;;2.95;;
54555;SDS011;57291;37.520;15.106;2023-03-01T03:45:39;13.88;;;2.40;;
54555;SDS011;57291;37.520;15.106;2023-03-01T03:48:07;9.88;;;1.77;;
54555;SDS011;57291;37.520;15.106;2023-03-01T03:50:39;10.88;;;2.05;;
54555;SDS011;57291;37.520;15.106;2023-03-01T03:53:12;7.95;;;1.80;;
54555;SDS011;57291;37.520;15.106;2023-03-01T03:55:39;9.27;;;2.05;;
54555;SDS011;57291;37.520;15.106;2023-03-01T03:58:07;14.48;;;2.50;;
54555;SDS011;57291;37.520;15.106;2023-03-01T04:00:40;14.07;;;2.38;;
54555;SDS011;57291;37.520;15.106;2023-03-01T04:03:08;10.50;;;2.47;;
54555;SDS011;57291;37.520;15.106;2023-03-01T04:05:37;12.65;;;1.77;;
54555;SDS011;57291;37.520;15.106;2023-03-01T04:08:04;13.30;;;2.08;;
54555;SDS011;57291;37.520;15.106;2023-03-01T04:10:56;13.55;;;2.47;;
54555;SDS011;57291;37.520;15.106;2023-03-01T04:13:47;12.00;;;2.45;;
54555;SDS011;57291;37.520;15.106;2023-03-01T04:16:14;7.18;;;2.15;;
54555;SDS011;57291;37.520;15.106;2023-03-01T04:18:42;12.18;;;2.40;;
54555;SDS011;57291;37.520;15.106;2023-03-01T04:21:09;11.55;;;1.98;;
54555;SDS011;57291;37.520;15.106;2023-03-01T04:23:37;12.85;;;2.20;;
54555;SDS011;57291;37.520;15.106;2023-03-01T04:26:05;6.45;;;1.90;;
54555;SDS011;57291;37.520;15.106;2023-03-01T04:28:33;12.00;;;1.90;;
54555;SDS011;57291;37.520;15.106;2023-03-01T04:31:03;14.50;;;2.75;;
54555;SDS011;57291;37.520;15.106;2023-03-01T04:33:44;9.57;;;3.03;;
54555;SDS011;57291;37.520;15.106;2023-03-01T04:36:22;15.82;;;2.65;;
54555;SDS011;57291;37.520;15.106;2023-03-01T04:38:52;18.33;;;5.50;;
54555;SDS011;57291;37.520;15.106;2023-03-01T04:41:21;11.43;;;2.30;;
54555;SDS011;57291;37.520;15.106;2023-03-01T04:43:49;9.88;;;2.40;;
54555;SDS011;57291;37.520;15.106;2023-03-01T04:46:18;12.73;;;2.58;;
54555;SDS011;57291;37.520;15.106;2023-03-01T04:48:46;11.52;;;2.75;;
54555;SDS011;57291;37.520;15.106;2023-03-01T04:51:14;11.30;;;3.17;;
54555;SDS011;57291;37.520;15.106;2023-03-01T04:53:42;10.02;;;2.28;;
54555;SDS011;57291;37.520;15.106;2023-03-01T04:56:10;13.38;;;2.80;;
54555;SDS011;57291;37.520;15.106;2023-03-01T04:58:40;11.60;;;2.88;;
54555;SDS011;57291;37.520;15.106;2023-03-01T05:01:09;9.02;;;2.70;;
54555;SDS011;57291;37.520;15.106;2023-03-01T05:03:45;13.00;;;2.60;;
54555;SDS011;57291;37.520;15.106;2023-03-01T05:06:17;11.50;;;2.90;;
54555;SDS011;57291;37.520;15.106;2023-03-01T05:08:45;11.60;;;2.65;;
54555;SDS011;57291;37.520;15.106;2023-03-01T05:11:12;8.65;;;2.70;;
54555;SDS011;57291;37.520;15.106;2023-03-01T05:13:40;9.30;;;2.80;;
54555;SDS011;57291;37.520;15.106;2023-03-01T05:16:07;10.75;;;3.15;;
54555;SDS011;57291;37.520;15.106;2023-03-01T05:18:39;8.70;;;3.13;;
54555;SDS011;57291;37.520;15.106;2023-03-01T05:21:11;8.43;;;2.65;;
54555;SDS011;57291;37.520;15.106;2023-03-01T05:23:43;18.45;;;3.97;;
54555;SDS011;57291;37.520;15.106;2023-03-01T05:26:10;10.38;;;3.63;;
54555;SDS011;57291;37.520;15.106;2023-03-01T05:28:59;13.93;;;3.05;;
54555;SDS011;57291;37.520;15.106;2023-03-01T05:31:26;11.10;;;3.17;;
54555;SDS011;57291;37.520;15.106;2023-03-01T05:33:54;13.88;;;3.50;;
54555;SDS011;57291;37.520;15.106;2023-03-01T05:36:21;8.68;;;3.35;;
54555;SDS011;57291;37.520;15.106;2023-03-01T05:38:48;16.17;;;3.13;;
54555;SDS011;57291;37.520;15.106;2023-03-01T05:41:15;8.85;;;3.63;;
54555;SDS011;57291;37.520;15.106;2023-03-01T05:43:43;17.25;;;3.88;;
54555;SDS011;57291;37.520;15.106;2023-03-01T05:46:11;13.45;;;4.35;;
54555;SDS011;57291;37.520;15.106;2023-03-01T05:48:40;12.77;;;4.28;;
54555;SDS011;57291;37.520;15.106;2023-03-01T05:51:07;22.35;;;8.95;;
54555;SDS011;57291;37.520;15.106;2023-03-01T05:53:34;11.52;;;4.43;;
54555;SDS011;57291;37.520;15.106;2023-03-01T05:56:05;11.65;;;4.50;;
54555;SDS011;57291;37.520;15.106;2023-03-01T05:58:32;14.07;;;4.03;;
54555;SDS011;57291;37.520;15.106;2023-03-01T06:00:59;14.30;;;4.15;;
54555;SDS011;57291;37.520;15.106;2023-03-01T06:03:28;7.88;;;3.50;;
54555;SDS011;57291;37.520;15.106;2023-03-01T06:05:56;8.00;;;3.60;;
54555;SDS011;57291;37.520;15.106;2023-03-01T06:08:23;8.85;;;3.45;;
54555;SDS011;57291;37.520;15.106;2023-03-01T06:10:53;9.77;;;2.80;;
54555;SDS011;57291;37.520;15.106;2023-03-01T06:13:20;7.07;;;3.35;;
54555;SDS011;57291;37.520;15.106;2023-03-01T06:15:48;8.40;;;2.95;;
54555;SDS011;57291;37.520;15.106;2023-03-01T06:18:16;6.95;;;2.97;;
54555;SDS011;57291;37.520;15.106;2023-03-01T06:20:43;6.72;;;2.50;;
54555;SDS011;57291;37.520;15.106;2023-03-01T06:23:10;7.35;;;2.85;;
54555;SDS011;57291;37.520;15.106;2023-03-01T06:25:37;8.68;;;2.65;;
54555;SDS011;57291;37.520;15.106;2023-03-01T06:28:04;9.43;;;2.78;;
54555;SDS011;57291;37.520;15.106;2023-03-01T06:30:31;7.30;;;2.90;;
54555;SDS011;57291;37.520;15.106;2023-03-01T06:32:58;10.20;;;2.65;;
54555;SDS011;57291;37.520;15.106;2023-03-01T06:35:29;7.93;;;2.85;;
54555;SDS011;57291;37.520;15.106;2023-03-01T06:37:58;14.25;;;3.15;;
54555;SDS011;57291;37.520;15.106;2023-03-01T06:40:27;10.27;;;3.25;;
54555;SDS011;57291;37.520;15.106;2023-03-01T06:42:55;9.90;;;3.45;;
54555;SDS011;57291;37.520;15.106;2023-03-01T06:45:22;9.43;;;4.18;;
54555;SDS011;57291;37.520;15.106;2023-03-01T06:47:50;12.40;;;4.05;;
54555;SDS011;57291;37.520;15.106;2023-03-01T06:50:17;21.02;;;4.63;;
54555;SDS011;57291;37.520;15.106;2023-03-01T06:52:45;10.93;;;3.17;;
54555;SDS011;57291;37.520;15.106;2023-03-01T06:55:15;10.95;;;3.35;;
54555;SDS011;57291;37.520;15.106;2023-03-01T06:57:42;13.13;;;3.55;;
54555;SDS011;57291;37.520;15.106;2023-03-01T07:00:09;11.02;;;3.33;;
54555;SDS011;57291;37.520;15.106;2023-03-01T07:02:37;16.70;;;3.90;;
54555;SDS011;57291;37.520;15.106;2023-03-01T07:05:04;13.93;;;3.35;;
54555;SDS011;57291;37.520;15.106;2023-03-01T07:07:32;11.70;;;2.78;;
54555;SDS011;57291;37.520;15.106;2023-03-01T07:09:59;15.88;;;3.10;;
54555;SDS011;57291;37.520;15.106;2023-03-01T07:12:27;11.20;;;3.40;;
54555;SDS011;57291;37.520;15.106;2023-03-01T07:14:54;13.75;;;3.13;;
54555;SDS011;57291;37.520;15.106;2023-03-01T07:17:21;16.33;;;4.03;;
54555;SDS011;57291;37.520;15.106;2023-03-01T07:19:48;16.80;;;3.63;;
54555;SDS011;57291;37.520;15.106;2023-03-01T07:22:15;15.90;;;3.78;;
54555;SDS011;57291;37.520;15.106;2023-03-01T07:24:42;13.02;;;3.30;;
54555;SDS011;57291;37.520;15.106;2023-03-01T07:27:10;10.75;;;3.15;;
54555;SDS011;57291;37.520;15.106;2023-03-01T07:29:37;16.10;;;3.50;;
54555;SDS011;57291;37.520;15.106;2023-03-01T07:32:05;13.57;;;2.70;;
54555;SDS011;57291;37.520;15.106;2023-03-01T07:34:32;11.70;;;3.22;;
54555;SDS011;57291;37.520;15.106;2023-03-01T07:37:00;6.90;;;2.80;;
54555;SDS011;57291;37.520;15.106;2023-03-01T07:39:27;14.93;;;3.10;;
54555;SDS011;57291;37.520;15.106;2023-03-01T07:41:54;13.10;;;2.72;;
54555;SDS011;57291;37.520;15.106;2023-03-01T07:44:21;9.55;;;2.38;;
54555;SDS011;57291;37.520;15.106;2023-03-01T07:46:48;12.85;;;2.28;;
54555;SDS011;57291;37.520;15.106;2023-03-01T07:49:15;11.88;;;2.80;;
54555;SDS011;57291;37.520;15.106;2023-03-01T07:51:43;8.77;;;2.28;;
54555;SDS011;57291;37.520;15.106;2023-03-01T07:54:10;12.63;;;2.85;;
54555;SDS011;57291;37.520;15.106;2023-03-01T07:56:37;10.02;;;2.33;;
54555;SDS011;57291;37.520;15.106;2023-03-01T07:59:04;10.50;;;2.50;;
54555;SDS011;57291;37.520;15.106;2023-03-01T08:01:31;9.80;;;1.60;;
54555;SDS011;57291;37.520;15.106;2023-03-01T08:03:58;6.82;;;2.10;;
54555;SDS011;57291;37.520;15.106;2023-03-01T08:06:26;7.93;;;1.75;;
54555;SDS011;57291;37.520;15.106;2023-03-01T08:08:53;16.25;;;2.80;;
54555;SDS011;57291;37.520;15.106;2023-03-01T08:11:22;7.10;;;1.65;;
54555;SDS011;57291;37.520;15.106;2023-03-01T08:13:52;8.90;;;2.20;;
54555;SDS011;57291;37.520;15.106;2023-03-01T08:16:19;10.68;;;2.22;;
54555;SDS011;57291;37.520;15.106;2023-03-01T08:18:47;10.40;;;2.47;;
54555;SDS011;57291;37.520;15.106;2023-03-01T08:21:15;10.95;;;2.28;;
54555;SDS011;57291;37.520;15.106;2023-03-01T08:23:45;7.28;;;2.13;;
54555;SDS011;57291;37.520;15.106;2023-03-01T08:26:16;10.70;;;2.20;;
54555;SDS011;57291;37.520;15.106;2023-03-01T08:28:45;7.90;;;2.00;;
54555;SDS011;57291;37.520;15.106;2023-03-01T08:33:49;7.85;;;2.08;;
54555;SDS011;57291;37.520;15.106;2023-03-01T08:36:22;6.22;;;2.13;;
54555;SDS011;57291;37.520;15.106;2023-03-01T08:38:51;10.13;;;2.20;;
54555;SDS011;57291;37.520;15.106;2023-03-01T08:41:18;7.40;;;2.05;;
54555;SDS011;57291;37.520;15.106;2023-03-01T08:43:46;6.93;;;2.15;;
54555;SDS011;57291;37.520;15.106;2023-03-01T08:46:13;10.07;;;2.50;;
54555;SDS011;57291;37.520;15.106;2023-03-01T08:48:41;6.50;;;1.98;;
54555;SDS011;57291;37.520;15.106;2023-03-01T08:51:13;6.47;;;2.40;;
54555;SDS011;57291;37.520;15.106;2023-03-01T08:53:44;9.80;;;2.75;;
54555;SDS011;57291;37.520;15.106;2023-03-01T08:56:12;8.35;;;2.97;;
54555;SDS011;57291;37.520;15.106;2023-03-01T08:58:40;9.35;;;3.10;;
54555;SDS011;57291;37.520;15.106;2023-03-01T09:01:15;10.20;;;3.25;;
54555;SDS011;57291;37.520;15.106;2023-03-01T09:03:43;9.65;;;3.70;;
54555;SDS011;57291;37.520;15.106;2023-03-01T09:06:11;7.63;;;3.97;;
54555;SDS011;57291;37.520;15.106;2023-03-01T09:08:39;14.25;;;3.85;;
54555;SDS011;57291;37.520;15.106;2023-03-01T09:11:10;9.93;;;3.60;;
54555;SDS011;57291;37.520;15.106;2023-03-01T09:13:38;11.13;;;4.20;;
54555;SDS011;57291;37.520;15.106;2023-03-01T09:16:10;11.07;;;3.78;;
54555;SDS011;57291;37.520;15.106;2023-03-01T09:18:39;16.55;;;4.07;;
54555;SDS011;57291;37.520;15.106;2023-03-01T09:21:07;10.82;;;3.28;;
54555;SDS011;57291;37.520;15.106;2023-03-01T09:23:38;9.32;;;3.60;;
54555;SDS011;57291;37.520;15.106;2023-03-01T09:26:09;12.93;;;3.55;;
54555;SDS011;57291;37.520;15.106;2023-03-01T09:28:38;6.82;;;3.00;;
54555;SDS011;57291;37.520;15.106;2023-03-01T09:31:07;7.30;;;3.17;;
54555;SDS011;57291;37.520;15.106;2023-03-01T09:33:35;12.10;;;3.10;;
54555;SDS011;57291;37.520;15.106;2023-03-01T09:36:03;6.50;;;2.92;;
54555;SDS011;57291;37.520;15.106;2023-03-01T09:38:32;7.70;;;2.92;;
54555;SDS011;57291;37.520;15.106;2023-03-01T09:41:00;11.13;;;3.13;;
54555;SDS011;57291;37.520;15.106;2023-03-01T09:46:05;11.73;;;2.65;;
54555;SDS011;57291;37.520;15.106;2023-03-01T09:48:39;4.88;;;2.22;;
54555;SDS011;57291;37.520;15.106;2023-03-01T09:51:12;9.52;;;3.88;;
54555;SDS011;57291;37.520;15.106;2023-03-01T09:53:45;11.93;;;3.90;;
54555;SDS011;57291;37.520;15.106;2023-03-01T09:56:28;11.77;;;3.50;;
54555;SDS011;57291;37.520;15.106;2023-03-01T09:59:17;7.95;;;3.40;;
54555;SDS011;57291;37.520;15.106;2023-03-01T10:02:24;9.05;;;2.53;;
54555;SDS011;57291;37.520;15.106;2023-03-01T10:11:12;6.95;;;2.00;;
54555;SDS011;57291;37.520;15.106;2023-03-01T10:19:17;4.72;;;1.92;;
54555;SDS011;57291;37.520;15.106;2023-03-01T10:21:51;5.75;;;1.77;;
54555;SDS011;57291;37.520;15.106;2023-03-01T10:24:20;4.43;;;1.50;;
54555;SDS011;57291;37.520;15.106;2023-03-01T10:29:24;5.25;;;2.20;;
54555;SDS011;57291;37.520;15.106;2023-03-01T10:31:59;7.15;;;1.90;;
54555;SDS011;57291;37.520;15.106;2023-03-01T10:34:28;4.93;;;1.85;;
54555;SDS011;57291;37.520;15.106;2023-03-01T10:37:01;2.80;;;1.45;;
54555;SDS011;57291;37.520;15.106;2023-03-01T10:39:37;5.38;;;1.60;;
54555;SDS011;57291;37.520;15.106;2023-03-01T10:42:25;3.05;;;1.23;;
54555;SDS011;57291;37.520;15.106;2023-03-01T10:44:58;6.50;;;1.52;;
54555;SDS011;57291;37.520;15.106;2023-03-01T10:47:42;3.97;;;1.38;;
54555;SDS011;57291;37.520;15.106;2023-03-01T10:50:19;4.40;;;1.35;;
54555;SDS011;57291;37.520;15.106;2023-03-01T10:55:47;5.63;;;1.30;;
54555;SDS011;57291;37.520;15.106;2023-03-01T10:58:25;3.25;;;1.83;;
54555;SDS011;57291;37.520;15.106;2023-03-01T11:03:33;5.63;;;1.20;;
54555;SDS011;57291;37.520;15.106;2023-03-01T11:06:26;7.75;;;1.75;;
54555;SDS011;57291;37.520;15.106;2023-03-01T11:08:52;8.00;;;1.58;;
54555;SDS011;57291;37.520;15.106;2023-03-01T11:11:28;4.00;;;1.45;;
54555;SDS011;57291;37.520;15.106;2023-03-01T11:14:03;3.60;;;1.20;;
54555;SDS011;57291;37.520;15.106;2023-03-01T11:19:29;4.60;;;1.60;;
54555;SDS011;57291;37.520;15.106;2023-03-01T11:22:02;8.15;;;1.75;;
54555;SDS011;57291;37.520;15.106;2023-03-01T11:24:40;5.15;;;1.20;;
54555;SDS011;57291;37.520;15.106;2023-03-01T11:32:40;9.80;;;1.85;;
54555;SDS011;57291;37.520;15.106;2023-03-01T11:35:26;6.50;;;1.38;;
54555;SDS011;57291;37.520;15.106;2023-03-01T11:40:50;10.23;;;1.80;;
54555;SDS011;57291;37.520;15.106;2023-03-01T12:03:08;5.82;;;1.50;;
54555;SDS011;57291;37.520;15.106;2023-03-01T12:17:08;4.70;;;1.10;;
54555;SDS011;57291;37.520;15.106;2023-03-01T12:38:32;8.85;;;2.00;;
54555;SDS011;57291;37.520;15.106;2023-03-01T12:49:40;8.48;;;2.40;;
54555;SDS011;57291;37.520;15.106;2023-03-01T12:54:50;8.18;;;2.03;;
54555;SDS011;57291;37.520;15.106;2023-03-01T13:03:19;9.70;;;1.88;;
54555;SDS011;57291;37.520;15.106;2023-03-01T13:06:04;10.73;;;1.75;;
54555;SDS011;57291;37.520;15.106;2023-03-01T13:08:42;9.77;;;1.73;;
54555;SDS011;57291;37.520;15.106;2023-03-01T13:11:14;9.85;;;1.67;;
54555;SDS011;57291;37.520;15.106;2023-03-01T13:13:46;9.90;;;1.55;;
54555;SDS011;57291;37.520;15.106;2023-03-01T13:19:16;12.13;;;1.90;;
54555;SDS011;57291;37.520;15.106;2023-03-01T13:21:45;11.13;;;1.80;;
54555;SDS011;57291;37.520;15.106;2023-03-01T13:24:25;10.57;;;2.00;;
54555;SDS011;57291;37.520;15.106;2023-03-01T13:29:47;8.85;;;1.50;;
54555;SDS011;57291;37.520;15.106;2023-03-01T13:32:18;20.70;;;2.67;;
54555;SDS011;57291;37.520;15.106;2023-03-01T13:38:36;9.68;;;1.88;;
54555;SDS011;57291;37.520;15.106;2023-03-01T13:41:07;10.40;;;1.95;;
54555;SDS011;57291;37.520;15.106;2023-03-01T13:43:35;10.80;;;1.90;;
54555;SDS011;57291;37.520;15.106;2023-03-01T13:46:25;7.13;;;1.63;;
54555;SDS011;57291;37.520;15.106;2023-03-01T13:48:53;10.82;;;2.17;;
54555;SDS011;57291;37.520;15.106;2023-03-01T13:51:23;10.25;;;2.15;;
54555;SDS011;57291;37.520;15.106;2023-03-01T13:53:53;7.15;;;1.60;;
54555;SDS011;57291;37.520;15.106;2023-03-01T13:56:24;10.15;;;1.60;;
54555;SDS011;57291;37.520;15.106;2023-03-01T13:59:02;12.90;;;1.83;;
54555;SDS011;57291;37.520;15.106;2023-03-01T14:01:34;11.00;;;1.95;;
54555;SDS011;57291;37.520;15.106;2023-03-01T14:04:03;15.57;;;2.90;;
54555;SDS011;57291;37.520;15.106;2023-03-01T14:06:46;8.98;;;2.08;;
54555;SDS011;57291;37.520;15.106;2023-03-01T14:12:19;10.45;;;1.65;;
54555;SDS011;57291;37.520;15.106;2023-03-01T14:19:58;12.43;;;2.35;;
54555;SDS011;57291;37.520;15.106;2023-03-01T14:22:34;12.93;;;2.05;;
54555;SDS011;57291;37.520;15.106;2023-03-01T14:25:04;12.35;;;1.30;;
54555;SDS011;57291;37.520;15.106;2023-03-01T14:27:43;11.07;;;1.55;;
54555;SDS011;57291;37.520;15.106;2023-03-01T14:33:03;10.48;;;1.60;;
54555;SDS011;57291;37.520;15.106;2023-03-01T14:35:34;12.25;;;1.92;;
54555;SDS011;57291;37.520;15.106;2023-03-01T14:38:03;15.27;;;1.55;;
54555;SDS011;57291;37.520;15.106;2023-03-01T14:40:32;16.02;;;1.50;;
54555;SDS011;57291;37.520;15.106;2023-03-01T14:43:03;10.80;;;1.42;;
54555;SDS011;57291;37.520;15.106;2023-03-01T14:45:37;12.85;;;2.05;;
54555;SDS011;57291;37.520;15.106;2023-03-01T14:48:05;13.18;;;1.85;;
54555;SDS011;57291;37.520;15.106;2023-03-01T14:50:34;14.30;;;2.15;;
54555;SDS011;57291;37.520;15.106;2023-03-01T14:53:13;10.30;;;1.75;;
54555;SDS011;57291;37.520;15.106;2023-03-01T14:55:54;8.95;;;1.45;;
54555;SDS011;57291;37.520;15.106;2023-03-01T14:58:24;20.42;;;2.22;;
54555;SDS011;57291;37.520;15.106;2023-03-01T15:00:55;21.13;;;2.25;;
54555;SDS011;57291;37.520;15.106;2023-03-01T15:03:27;18.55;;;1.92;;
54555;SDS011;57291;37.520;15.106;2023-03-01T15:06:03;19.55;;;2.10;;
54555;SDS011;57291;37.520;15.106;2023-03-01T15:08:32;17.40;;;2.22;;
54555;SDS011;57291;37.520;15.106;2023-03-01T15:13:40;18.08;;;2.35;;
54555;SDS011;57291;37.520;15.106;2023-03-01T15:16:09;21.20;;;2.67;;
54555;SDS011;57291;37.520;15.106;2023-03-01T15:18:48;14.55;;;2.58;;
54555;SDS011;57291;37.520;15.106;2023-03-01T15:21:24;16.35;;;2.20;;
54555;SDS011;57291;37.520;15.106;2023-03-01T15:23:55;21.73;;;2.20;;
54555;SDS011;57291;37.520;15.106;2023-03-01T15:26:29;24.58;;;2.88;;
54555;SDS011;57291;37.520;15.106;2023-03-01T15:29:00;20.30;;;2.33;;
54555;SDS011;57291;37.520;15.106;2023-03-01T15:31:37;18.90;;;2.92;;
54555;SDS011;57291;37.520;15.106;2023-03-01T15:34:09;19.38;;;2.70;;
54555;SDS011;57291;37.520;15.106;2023-03-01T15:36:48;17.80;;;2.87;;
54555;SDS011;57291;37.520;15.106;2023-03-01T15:39:26;20.60;;;2.60;;
54555;SDS011;57291;37.520;15.106;2023-03-01T15:41:54;27.40;;;2.67;;
54555;SDS011;57291;37.520;15.106;2023-03-01T15:44:27;13.02;;;1.67;;
54555;SDS011;57291;37.520;15.106;2023-03-01T15:47:22;16.92;;;2.35;;
54555;SDS011;57291;37.520;15.106;2023-03-01T15:49:53;16.08;;;2.40;;
54555;SDS011;57291;37.520;15.106;2023-03-01T15:55:12;17.70;;;2.50;;
54555;SDS011;57291;37.520;15.106;2023-03-01T15:57:45;17.05;;;2.63;;
54555;SDS011;57291;37.520;15.106;2023-03-01T16:00:13;10.68;;;1.77;;
54555;SDS011;57291;37.520;15.106;2023-03-01T16:02:42;18.58;;;2.17;;
54555;SDS011;57291;37.520;15.106;2023-03-01T16:07:50;6.97;;;1.92;;
54555;SDS011;57291;37.520;15.106;2023-03-01T16:10:17;13.63;;;1.65;;
54555;SDS011;57291;37.520;15.106;2023-03-01T16:12:45;6.68;;;1.38;;
54555;SDS011;57291;37.520;15.106;2023-03-01T16:15:17;6.80;;;1.63;;
54555;SDS011;57291;37.520;15.106;2023-03-01T16:17:46;5.05;;;1.48;;
54555;SDS011;57291;37.520;15.106;2023-03-01T16:20:20;5.75;;;1.52;;
54555;SDS011;57291;37.520;15.106;2023-03-01T16:22:54;13.25;;;1.80;;
54555;SDS011;57291;37.520;15.106;2023-03-01T16:25:25;9.90;;;2.17;;
54555;SDS011;57291;37.520;15.106;2023-03-01T16:27:54;8.68;;;2.30;;
54555;SDS011;57291;37.520;15.106;2023-03-01T16:30:22;11.35;;;2.05;;
54555;SDS011;57291;37.520;15.106;2023-03-01T16:32:50;13.85;;;2.00;;
54555;SDS011;57291;37.520;15.106;2023-03-01T16:35:18;4.93;;;1.88;;
54555;SDS011;57291;37.520;15.106;2023-03-01T16:37:47;8.52;;;2.05;;
54555;SDS011;57291;37.520;15.106;2023-03-01T16:40:17;8.48;;;2.25;;
54555;SDS011;57291;37.520;15.106;2023-03-01T16:42:44;17.95;;;2.85;;
54555;SDS011;57291;37.520;15.106;2023-03-01T16:45:11;13.88;;;2.60;;
54555;SDS011;57291;37.520;15.106;2023-03-01T16:47:50;8.30;;;2.40;;
54555;SDS011;57291;37.520;15.106;2023-03-01T16:50:21;12.15;;;2.22;;
54555;SDS011;57291;37.520;15.106;2023-03-01T16:52:48;7.32;;;2.45;;
54555;SDS011;57291;37.520;15.106;2023-03-01T16:55:15;12.75;;;2.63;;
54555;SDS011;57291;37.520;15.106;2023-03-01T16:57:43;14.13;;;2.78;;
54555;SDS011;57291;37.520;15.106;2023-03-01T17:00:10;9.63;;;2.30;;
54555;SDS011;57291;37.520;15.106;2023-03-01T17:02:40;12.43;;;2.50;;
54555;SDS011;57291;37.520;15.106;2023-03-01T17:05:08;9.27;;;1.90;;
54555;SDS011;57291;37.520;15.106;2023-03-01T17:07:40;13.90;;;2.63;;
54555;SDS011;57291;37.520;15.106;2023-03-01T17:10:09;7.35;;;1.75;;
54555;SDS011;57291;37.520;15.106;2023-03-01T17:12:37;9.07;;;1.90;;
54555;SDS011;57291;37.520;15.106;2023-03-01T17:15:05;8.45;;;1.60;;
54555;SDS011;57291;37.520;15.106;2023-03-01T17:17:34;8.23;;;2.55;;